sensor_id;sensor_type;location;lat;lon;timestamp;pressure;altitude;pressure_sealevel;temperature;humidity
6387;BME280;3226;42.162;24.756;2024-03-08T00:00:14;99889.25;;;5.03;100.00
6387;BME280;3226;42.162;24.756;2024-03-08T00:02:46;99881.63;;;5.00;100.00
6387;BME280;3226;42.162;24.756;2024-03-08T00:05:16;99876.78;;;5.10;100.00
6387;BME280;3226;42.162;24.756;2024-03-08T00:07:44;99845.72;;;4.92;100.00
6387;BME280;3226;42.162;24.756;2024-03-08T00:10:13;99873.75;;;5.17;100.00
6387;BME280;3226;42.162;24.756;2024-03-08T00:12:43;99870.97;;;5.20;100.00
6387;BME280;3226;42.162;24.756;2024-03-08T00:15:12;99867.19;;;5.26;100.00
6387;BME280;3226;42.162;24.756;2024-03-08T00:17:43;99868.13;;;5.09;100.00
6387;BME280;3226;42.162;24.756;2024-03-08T00:20:11;99862.63;;;5.15;100.00
6387;BME280;3226;42.162;24.756;2024-03-08T00:22:41;99863.25;;;5.19;100.00
6387;BME280;3226;42.162;24.756;2024-03-08T00:25:10;99860.16;;;5.12;100.00
6387;BME280;3226;42.162;24.756;2024-03-08T00:27:38;99857.56;;;5.12;100.00
6387;BME280;3226;42.162;24.756;2024-03-08T00:30:08;99847.88;;;5.00;100.00
6387;BME280;3226;42.162;24.756;2024-03-08T00:32:37;99864.31;;;5.00;100.00
6387;BME280;3226;42.162;24.756;2024-03-08T00:35:06;99852.25;;;4.99;100.00
6387;BME280;3226;42.162;24.756;2024-03-08T00:37:34;99865.06;;;5.02;100.00
6387;BME280;3226;42.162;24.756;2024-03-08T00:40:03;99861.94;;;5.12;100.00
6387;BME280;3226;42.162;24.756;2024-03-08T00:42:34;99869.38;;;5.18;100.00
6387;BME280;3226;42.162;24.756;2024-03-08T00:45:02;99865.03;;;5.18;100.00
6387;BME280;3226;42.162;24.756;2024-03-08T00:47:30;99868.78;;;5.29;100.00
6387;BME280;3226;42.162;24.756;2024-03-08T00:49:58;99868.94;;;5.26;100.00
6387;BME280;3226;42.162;24.756;2024-03-08T00:52:26;99864.31;;;5.31;100.00
6387;BME280;3226;42.162;24.756;2024-03-08T00:54:54;99868.09;;;5.25;100.00
6387;BME280;3226;42.162;24.756;2024-03-08T00:57:23;99866.34;;;5.26;100.00
6387;BME280;3226;42.162;24.756;2024-03-08T00:59:51;99849.38;;;5.04;100.00
6387;BME280;3226;42.162;24.756;2024-03-08T01:02:19;99864.19;;;5.18;100.00
6387;BME280;3226;42.162;24.756;2024-03-08T01:04:49;99859.88;;;5.33;100.00
6387;BME280;3226;42.162;24.756;2024-03-08T01:07:17;99854.44;;;5.38;100.00
6387;BME280;3226;42.162;24.756;2024-03-08T01:09:45;99830.34;;;5.19;100.00
6387;BME280;3226;42.162;24.756;2024-03-08T01:12:13;99842.25;;;5.24;100.00
6387;BME280;3226;42.162;24.756;2024-03-08T01:14:43;99852.66;;;5.38;100.00
6387;BME280;3226;42.162;24.756;2024-03-08T01:17:11;99850.56;;;5.45;100.00
6387;BME280;3226;42.162;24.756;2024-03-08T01:19:39;99855.63;;;5.46;100.00
6387;BME280;3226;42.162;24.756;2024-03-08T01:22:07;99846.03;;;5.48;100.00
6387;BME280;3226;42.162;24.756;2024-03-08T01:24:36;99841.69;;;5.33;100.00
6387;BME280;3226;42.162;24.756;2024-03-08T01:27:04;99826.84;;;5.20;100.00
6387;BME280;3226;42.162;24.756;2024-03-08T01:29:32;99855.44;;;5.35;100.00
6387;BME280;3226;42.162;24.756;2024-03-08T01:32:01;99847.78;;;5.17;100.00
6387;BME280;3226;42.162;24.756;2024-03-08T01:34:29;99846.53;;;5.09;100.00
6387;BME280;3226;42.162;24.756;2024-03-08T01:36:57;99859.16;;;5.15;100.00
6387;BME280;3226;42.162;24.756;2024-03-08T01:39:26;99863.09;;;5.22;100.00
6387;BME280;3226;42.162;24.756;2024-03-08T01:41:54;99858.38;;;5.29;100.00
6387;BME280;3226;42.162;24.756;2024-03-08T01:44:22;99866.13;;;5.14;100.00
6387;BME280;3226;42.162;24.756;2024-03-08T01:46:51;99862.75;;;5.12;100.00
6387;BME280;3226;42.162;24.756;2024-03-08T01:49:21;99863.94;;;5.23;100.00
6387;BME280;3226;42.162;24.756;2024-03-08T01:51:50;99859.13;;;5.31;100.00
6387;BME280;3226;42.162;24.756;2024-03-08T01:54:19;99866.94;;;5.31;100.00
6387;BME280;3226;42.162;24.756;2024-03-08T01:56:47;99868.94;;;5.26;100.00
6387;BME280;3226;42.162;24.756;2024-03-08T01:59:16;99847.00;;;5.31;100.00
6387;BME280;3226;42.162;24.756;2024-03-08T02:01:44;99842.81;;;5.29;100.00
6387;BME280;3226;42.162;24.756;2024-03-08T02:04:12;99856.34;;;5.34;100.00
6387;BME280;3226;42.162;24.756;2024-03-08T02:06:41;99851.53;;;5.28;100.00
6387;BME280;3226;42.162;24.756;2024-03-08T02:09:09;99858.78;;;5.37;100.00
6387;BME280;3226;42.162;24.756;2024-03-08T02:11:37;99856.94;;;5.39;100.00
6387;BME280;3226;42.162;24.756;2024-03-08T02:14:05;99866.97;;;5.45;100.00
6387;BME280;3226;42.162;24.756;2024-03-08T02:16:33;99857.25;;;5.49;100.00
6387;BME280;3226;42.162;24.756;2024-03-08T02:19:01;99844.22;;;5.34;100.00
6387;BME280;3226;42.162;24.756;2024-03-08T02:21:30;99861.63;;;5.48;100.00
6387;BME280;3226;42.162;24.756;2024-03-08T02:23:59;99858.38;;;5.29;100.00
6387;BME280;3226;42.162;24.756;2024-03-08T02:26:27;99860.06;;;5.30;100.00
6387;BME280;3226;42.162;24.756;2024-03-08T02:28:55;99845.00;;;5.20;100.00
6387;BME280;3226;42.162;24.756;2024-03-08T02:31:23;99854.69;;;5.33;100.00
6387;BME280;3226;42.162;24.756;2024-03-08T02:33:50;99830.22;;;5.06;100.00
6387;BME280;3226;42.162;24.756;2024-03-08T02:36:19;99859.38;;;5.26;100.00
6387;BME280;3226;42.162;24.756;2024-03-08T02:38:48;99842.69;;;5.00;100.00
6387;BME280;3226;42.162;24.756;2024-03-08T02:41:16;99862.00;;;5.10;100.00
6387;BME280;3226;42.162;24.756;2024-03-08T02:43:44;99858.34;;;5.14;100.00
6387;BME280;3226;42.162;24.756;2024-03-08T02:46:12;99860.41;;;5.24;100.00
6387;BME280;3226;42.162;24.756;2024-03-08T02:48:40;99865.94;;;5.33;100.00
6387;BME280;3226;42.162;24.756;2024-03-08T02:51:08;99856.72;;;5.28;100.00
6387;BME280;3226;42.162;24.756;2024-03-08T02:53:37;99867.19;;;5.26;100.00
6387;BME280;3226;42.162;24.756;2024-03-08T02:56:06;99873.97;;;5.29;100.00
6387;BME280;3226;42.162;24.756;2024-03-08T02:58:35;99872.53;;;5.23;100.00
6387;BME280;3226;42.162;24.756;2024-03-08T03:01:04;99876.03;;;5.07;100.00
6387;BME280;3226;42.162;24.756;2024-03-08T03:03:31;99871.66;;;4.92;100.00
6387;BME280;3226;42.162;24.756;2024-03-08T03:05:59;99879.72;;;4.87;100.00
6387;BME280;3226;42.162;24.756;2024-03-08T03:08:27;99874.94;;;4.80;100.00
6387;BME280;3226;42.162;24.756;2024-03-08T03:10:55;99885.50;;;4.76;100.00
6387;BME280;3226;42.162;24.756;2024-03-08T03:13:25;99870.84;;;4.75;100.00
6387;BME280;3226;42.162;24.756;2024-03-08T03:15:53;99886.59;;;4.56;100.00
6387;BME280;3226;42.162;24.756;2024-03-08T03:18:21;99886.47;;;4.58;100.00
6387;BME280;3226;42.162;24.756;2024-03-08T03:20:50;99890.91;;;4.56;100.00
6387;BME280;3226;42.162;24.756;2024-03-08T03:23:18;99894.72;;;4.66;100.00
6387;BME280;3226;42.162;24.756;2024-03-08T03:25:47;99865.16;;;4.69;100.00
6387;BME280;3226;42.162;24.756;2024-03-08T03:28:15;99887.50;;;4.71;100.00
6387;BME280;3226;42.162;24.756;2024-03-08T03:30:46;99896.38;;;4.83;100.00
6387;BME280;3226;42.162;24.756;2024-03-08T03:33:14;99906.84;;;4.82;100.00
6387;BME280;3226;42.162;24.756;2024-03-08T03:35:43;99898.47;;;4.76;100.00
6387;BME280;3226;42.162;24.756;2024-03-08T03:38:12;99897.56;;;4.77;100.00
6387;BME280;3226;42.162;24.756;2024-03-08T03:40:41;99883.16;;;4.72;100.00
6387;BME280;3226;42.162;24.756;2024-03-08T03:43:09;99895.31;;;4.87;100.00
6387;BME280;3226;42.162;24.756;2024-03-08T03:45:39;99897.13;;;4.85;100.00
6387;BME280;3226;42.162;24.756;2024-03-08T03:48:10;99907.25;;;4.74;100.00
6387;BME280;3226;42.162;24.756;2024-03-08T03:50:38;99905.41;;;4.76;100.00
6387;BME280;3226;42.162;24.756;2024-03-08T03:53:07;99907.41;;;4.71;100.00
6387;BME280;3226;42.162;24.756;2024-03-08T03:55:37;99911.28;;;4.80;100.00
6387;BME280;3226;42.162;24.756;2024-03-08T03:58:07;99897.63;;;4.60;100.00
6387;BME280;3226;42.162;24.756;2024-03-08T04:00:37;99911.69;;;4.88;100.00
6387;BME280;3226;42.162;24.756;2024-03-08T04:03:05;99915.94;;;4.73;100.00
6387;BME280;3226;42.162;24.756;2024-03-08T04:05:35;99917.16;;;4.67;100.00
6387;BME280;3226;42.162;24.756;2024-03-08T04:08:04;99924.25;;;4.63;100.00
6387;BME280;3226;42.162;24.756;2024-03-08T04:10:32;99902.97;;;4.73;100.00
6387;BME280;3226;42.162;24.756;2024-03-08T04:13:00;99916.88;;;4.72;100.00
6387;BME280;3226;42.162;24.756;2024-03-08T04:15:29;99914.03;;;4.60;100.00
6387;BME280;3226;42.162;24.756;2024-03-08T04:17:57;99917.13;;;4.51;100.00
6387;BME280;3226;42.162;24.756;2024-03-08T04:20:27;99926.47;;;4.54;100.00
6387;BME280;3226;42.162;24.756;2024-03-08T04:22:56;99927.28;;;4.38;100.00
6387;BME280;3226;42.162;24.756;2024-03-08T04:25:24;99929.34;;;4.49;100.00
6387;BME280;3226;42.162;24.756;2024-03-08T04:27:53;99924.53;;;4.41;100.00
6387;BME280;3226;42.162;24.756;2024-03-08T04:30:21;99918.50;;;4.25;100.00
6387;BME280;3226;42.162;24.756;2024-03-08T04:32:49;99925.66;;;4.19;100.00
6387;BME280;3226;42.162;24.756;2024-03-08T04:35:17;99931.09;;;4.15;100.00
6387;BME280;3226;42.162;24.756;2024-03-08T04:37:46;99931.41;;;4.09;100.00
6387;BME280;3226;42.162;24.756;2024-03-08T04:40:16;99813.22;;;3.37;100.00
6387;BME280;3226;42.162;24.756;2024-03-08T04:42:45;99932.00;;;3.96;100.00
6387;BME280;3226;42.162;24.756;2024-03-08T04:45:14;99936.88;;;4.02;100.00
6387;BME280;3226;42.162;24.756;2024-03-08T04:47:42;99939.03;;;4.12;100.00
6387;BME280;3226;42.162;24.756;2024-03-08T04:50:10;99931.09;;;3.97;100.00
6387;BME280;3226;42.162;24.756;2024-03-08T04:52:38;99942.31;;;3.98;100.00
6387;BME280;3226;42.162;24.756;2024-03-08T04:55:06;99940.09;;;3.90;100.00
6387;BME280;3226;42.162;24.756;2024-03-08T04:57:35;99934.97;;;3.88;100.00
6387;BME280;3226;42.162;24.756;2024-03-08T05:00:04;99946.50;;;3.83;100.00
6387;BME280;3226;42.162;24.756;2024-03-08T05:02:38;99948.63;;;3.92;100.00
6387;BME280;3226;42.162;24.756;2024-03-08T05:05:06;99918.00;;;3.65;100.00
6387;BME280;3226;42.162;24.756;2024-03-08T05:07:34;99942.31;;;3.80;100.00
6387;BME280;3226;42.162;24.756;2024-03-08T05:10:01;99950.63;;;3.87;100.00
6387;BME280;3226;42.162;24.756;2024-03-08T05:12:29;99949.91;;;3.83;100.00
6387;BME280;3226;42.162;24.756;2024-03-08T05:14:59;99954.88;;;3.70;100.00
6387;BME280;3226;42.162;24.756;2024-03-08T05:17:27;99958.91;;;3.76;100.00
6387;BME280;3226;42.162;24.756;2024-03-08T05:19:57;99922.56;;;3.60;100.00
6387;BME280;3226;42.162;24.756;2024-03-08T05:22:24;99968.97;;;3.82;100.00
6387;BME280;3226;42.162;24.756;2024-03-08T05:24:52;99969.16;;;3.97;100.00
6387;BME280;3226;42.162;24.756;2024-03-08T05:27:20;99969.47;;;3.90;100.00
6387;BME280;3226;42.162;24.756;2024-03-08T05:29:48;99952.16;;;3.73;100.00
6387;BME280;3226;42.162;24.756;2024-03-08T05:32:17;99976.97;;;3.95;100.00
6387;BME280;3226;42.162;24.756;2024-03-08T05:34:45;99978.22;;;3.88;100.00
6387;BME280;3226;42.162;24.756;2024-03-08T05:37:13;99980.19;;;3.83;100.00
6387;BME280;3226;42.162;24.756;2024-03-08T05:39:41;99983.94;;;3.95;100.00
6387;BME280;3226;42.162;24.756;2024-03-08T05:42:11;99980.75;;;3.89;100.00
6387;BME280;3226;42.162;24.756;2024-03-08T05:44:39;99992.53;;;3.95;100.00
6387;BME280;3226;42.162;24.756;2024-03-08T05:47:07;99986.59;;;3.93;100.00
6387;BME280;3226;42.162;24.756;2024-03-08T05:49:36;99866.78;;;3.17;100.00
6387;BME280;3226;42.162;24.756;2024-03-08T05:52:04;99991.63;;;3.96;100.00
6387;BME280;3226;42.162;24.756;2024-03-08T05:54:32;99995.88;;;3.80;100.00
6387;BME280;3226;42.162;24.756;2024-03-08T05:57:00;100005.91;;;3.68;100.00
6387;BME280;3226;42.162;24.756;2024-03-08T05:59:28;100003.88;;;3.75;100.00
6387;BME280;3226;42.162;24.756;2024-03-08T06:01:56;100001.84;;;3.82;100.00
6387;BME280;3226;42.162;24.756;2024-03-08T06:04:24;99976.19;;;3.58;100.00
6387;BME280;3226;42.162;24.756;2024-03-08T06:06:53;100003.41;;;3.84;100.00
6387;BME280;3226;42.162;24.756;2024-03-08T06:09:22;99988.94;;;3.80;100.00
6387;BME280;3226;42.162;24.756;2024-03-08T06:11:51;100010.75;;;4.11;100.00
6387;BME280;3226;42.162;24.756;2024-03-08T06:14:21;100014.19;;;4.12;100.00
6387;BME280;3226;42.162;24.756;2024-03-08T06:16:50;99980.75;;;3.89;100.00
6387;BME280;3226;42.162;24.756;2024-03-08T06:19:17;100019.88;;;4.18;100.00
6387;BME280;3226;42.162;24.756;2024-03-08T06:21:45;100016.69;;;4.13;100.00
6387;BME280;3226;42.162;24.756;2024-03-08T06:24:15;100013.94;;;4.16;100.00
6387;BME280;3226;42.162;24.756;2024-03-08T06:26:43;100016.38;;;4.71;100.00
6387;BME280;3226;42.162;24.756;2024-03-08T06:29:11;100032.44;;;5.11;100.00
6387;BME280;3226;42.162;24.756;2024-03-08T06:31:39;100029.44;;;5.03;100.00
6387;BME280;3226;42.162;24.756;2024-03-08T06:34:07;100022.66;;;5.00;100.00
6387;BME280;3226;42.162;24.756;2024-03-08T06:36:36;100023.75;;;4.96;100.00
6387;BME280;3226;42.162;24.756;2024-03-08T06:39:05;100021.78;;;4.84;100.00
6387;BME280;3226;42.162;24.756;2024-03-08T06:41:38;100022.69;;;4.83;100.00
6387;BME280;3226;42.162;24.756;2024-03-08T06:44:06;100027.47;;;4.74;100.00
6387;BME280;3226;42.162;24.756;2024-03-08T06:46:35;100026.38;;;4.45;100.00
6387;BME280;3226;42.162;24.756;2024-03-08T06:49:05;100027.91;;;4.49;100.00
6387;BME280;3226;42.162;24.756;2024-03-08T06:51:33;100028.41;;;4.56;100.00
6387;BME280;3226;42.162;24.756;2024-03-08T06:54:01;100031.19;;;4.69;100.00
6387;BME280;3226;42.162;24.756;2024-03-08T06:56:35;99969.16;;;4.48;100.00
6387;BME280;3226;42.162;24.756;2024-03-08T06:59:05;100040.69;;;4.86;100.00
6387;BME280;3226;42.162;24.756;2024-03-08T07:01:33;100044.06;;;4.54;100.00
6387;BME280;3226;42.162;24.756;2024-03-08T07:04:03;100030.69;;;4.62;100.00
6387;BME280;3226;42.162;24.756;2024-03-08T07:06:33;100039.41;;;4.61;100.00
6387;BME280;3226;42.162;24.756;2024-03-08T07:09:01;100028.44;;;4.38;100.00
6387;BME280;3226;42.162;24.756;2024-03-08T07:11:29;100037.19;;;4.53;100.00
6387;BME280;3226;42.162;24.756;2024-03-08T07:13:57;100034.06;;;4.46;100.00
6387;BME280;3226;42.162;24.756;2024-03-08T07:16:26;100045.63;;;4.74;100.00
6387;BME280;3226;42.162;24.756;2024-03-08T07:18:55;100042.31;;;4.88;100.00
6387;BME280;3226;42.162;24.756;2024-03-08T07:21:23;99998.22;;;4.71;100.00
6387;BME280;3226;42.162;24.756;2024-03-08T07:23:51;100049.19;;;5.05;100.00
6387;BME280;3226;42.162;24.756;2024-03-08T07:26:39;100040.72;;;5.02;100.00
6387;BME280;3226;42.162;24.756;2024-03-08T07:29:07;100037.97;;;5.05;100.00
6387;BME280;3226;42.162;24.756;2024-03-08T07:31:38;100043.28;;;5.19;100.00
6387;BME280;3226;42.162;24.756;2024-03-08T07:34:17;100040.09;;;5.30;100.00
6387;BME280;3226;42.162;24.756;2024-03-08T07:36:45;100029.25;;;5.06;100.00
6387;BME280;3226;42.162;24.756;2024-03-08T07:39:13;100055.50;;;5.17;100.00
6387;BME280;3226;42.162;24.756;2024-03-08T07:41:41;100039.56;;;5.07;100.00
6387;BME280;3226;42.162;24.756;2024-03-08T07:44:09;100051.72;;;5.39;100.00
6387;BME280;3226;42.162;24.756;2024-03-08T07:46:39;100051.25;;;5.32;100.00
6387;BME280;3226;42.162;24.756;2024-03-08T07:49:08;100045.72;;;5.23;100.00
6387;BME280;3226;42.162;24.756;2024-03-08T07:51:37;100045.94;;;5.34;100.00
6387;BME280;3226;42.162;24.756;2024-03-08T07:54:05;100046.69;;;5.52;100.00
6387;BME280;3226;42.162;24.756;2024-03-08T07:56:35;100037.22;;;5.51;100.00
6387;BME280;3226;42.162;24.756;2024-03-08T07:59:04;100045.19;;;5.48;100.00
6387;BME280;3226;42.162;24.756;2024-03-08T08:01:33;100043.88;;;5.57;100.00
6387;BME280;3226;42.162;24.756;2024-03-08T08:04:02;100045.41;;;5.75;100.00
6387;BME280;3226;42.162;24.756;2024-03-08T08:06:31;100055.16;;;5.72;100.00
6387;BME280;3226;42.162;24.756;2024-03-08T08:08:59;100032.38;;;5.61;100.00
6387;BME280;3226;42.162;24.756;2024-03-08T08:11:28;100056.75;;;5.74;100.00
6387;BME280;3226;42.162;24.756;2024-03-08T08:13:56;100057.66;;;5.73;100.00
6387;BME280;3226;42.162;24.756;2024-03-08T08:16:26;100059.25;;;5.76;100.00
6387;BME280;3226;42.162;24.756;2024-03-08T08:18:54;100061.09;;;5.90;100.00
6387;BME280;3226;42.162;24.756;2024-03-08T08:21:23;100050.88;;;5.87;100.00
6387;BME280;3226;42.162;24.756;2024-03-08T08:23:52;100059.59;;;5.86;100.00
6387;BME280;3226;42.162;24.756;2024-03-08T08:26:21;100060.34;;;5.88;100.00
6387;BME280;3226;42.162;24.756;2024-03-08T08:28:52;100060.59;;;5.83;100.00
6387;BME280;3226;42.162;24.756;2024-03-08T08:31:21;100035.59;;;5.81;100.00
6387;BME280;3226;42.162;24.756;2024-03-08T08:33:49;100054.69;;;6.12;100.00
6387;BME280;3226;42.162;24.756;2024-03-08T08:36:20;100069.19;;;6.00;100.00
6387;BME280;3226;42.162;24.756;2024-03-08T08:38:49;100058.63;;;6.19;100.00
6387;BME280;3226;42.162;24.756;2024-03-08T08:41:20;100072.66;;;6.31;100.00
6387;BME280;3226;42.162;24.756;2024-03-08T08:43:48;100029.84;;;6.22;100.00
6387;BME280;3226;42.162;24.756;2024-03-08T08:46:33;100061.94;;;6.37;100.00
6387;BME280;3226;42.162;24.756;2024-03-08T08:49:07;100060.31;;;6.34;100.00
6387;BME280;3226;42.162;24.756;2024-03-08T08:51:37;100060.09;;;6.54;100.00
6387;BME280;3226;42.162;24.756;2024-03-08T08:54:06;100053.63;;;6.30;100.00
6387;BME280;3226;42.162;24.756;2024-03-08T08:56:38;100059.63;;;6.61;100.00
6387;BME280;3226;42.162;24.756;2024-03-08T08:59:06;99974.47;;;6.20;100.00
6387;BME280;3226;42.162;24.756;2024-03-08T09:01:34;100053.88;;;6.85;100.00
6387;BME280;3226;42.162;24.756;2024-03-08T09:04:02;100059.44;;;6.79;100.00
6387;BME280;3226;42.162;24.756;2024-03-08T09:06:30;100056.09;;;6.62;100.00
6387;BME280;3226;42.162;24.756;2024-03-08T09:08:58;100057.97;;;6.75;100.00
6387;BME280;3226;42.162;24.756;2024-03-08T09:11:30;100050.22;;;7.02;100.00
6387;BME280;3226;42.162;24.756;2024-03-08T09:13:58;100051.06;;;7.32;100.00
6387;BME280;3226;42.162;24.756;2024-03-08T09:16:26;100061.56;;;7.30;100.00
6387;BME280;3226;42.162;24.756;2024-03-08T09:18:54;100053.94;;;7.69;100.00
6387;BME280;3226;42.162;24.756;2024-03-08T09:21:22;100054.50;;;7.60;100.00
6387;BME280;3226;42.162;24.756;2024-03-08T09:23:51;100054.69;;;7.57;100.00
6387;BME280;3226;42.162;24.756;2024-03-08T09:26:19;100050.47;;;7.69;100.00
6387;BME280;3226;42.162;24.756;2024-03-08T09:28:56;100056.28;;;7.59;100.00
6387;BME280;3226;42.162;24.756;2024-03-08T09:31:24;100023.81;;;7.50;100.00
6387;BME280;3226;42.162;24.756;2024-03-08T09:33:52;100063.16;;;7.88;100.00
6387;BME280;3226;42.162;24.756;2024-03-08T09:36:20;100013.94;;;7.28;100.00
6387;BME280;3226;42.162;24.756;2024-03-08T09:38:48;100067.38;;;7.63;100.00
6387;BME280;3226;42.162;24.756;2024-03-08T09:41:16;100054.66;;;7.71;100.00
6387;BME280;3226;42.162;24.756;2024-03-08T09:43:45;100071.06;;;7.59;100.00
6387;BME280;3226;42.162;24.756;2024-03-08T09:46:15;100012.41;;;6.97;100.00
6387;BME280;3226;42.162;24.756;2024-03-08T09:48:43;100070.84;;;7.49;100.00
6387;BME280;3226;42.162;24.756;2024-03-08T09:51:13;100047.50;;;7.33;100.00
6387;BME280;3226;42.162;24.756;2024-03-08T09:53:42;100068.25;;;7.34;100.00
6387;BME280;3226;42.162;24.756;2024-03-08T09:56:10;100065.38;;;7.39;100.00
6387;BME280;3226;42.162;24.756;2024-03-08T09:58:39;100061.25;;;7.49;100.00
6387;BME280;3226;42.162;24.756;2024-03-08T10:01:46;100021.66;;;7.30;100.00
6387;BME280;3226;42.162;24.756;2024-03-08T10:04:14;100029.19;;;7.62;100.00
6387;BME280;3226;42.162;24.756;2024-03-08T10:06:44;100058.00;;;7.46;100.00
6387;BME280;3226;42.162;24.756;2024-03-08T10:09:13;100063.63;;;7.67;100.00
6387;BME280;3226;42.162;24.756;2024-03-08T10:11:43;100029.81;;;7.38;100.00
6387;BME280;3226;42.162;24.756;2024-03-08T10:14:11;100060.69;;;7.44;100.00
6387;BME280;3226;42.162;24.756;2024-03-08T10:16:39;100040.50;;;7.33;100.00
6387;BME280;3226;42.162;24.756;2024-03-08T10:19:09;100048.19;;;7.64;100.00
6387;BME280;3226;42.162;24.756;2024-03-08T10:21:47;100039.03;;;7.29;100.00
6387;BME280;3226;42.162;24.756;2024-03-08T10:24:15;100057.47;;;7.26;100.00
6387;BME280;3226;42.162;24.756;2024-03-08T10:26:43;100050.06;;;7.47;100.00
6387;BME280;3226;42.162;24.756;2024-03-08T10:29:12;100044.97;;;7.46;100.00
6387;BME280;3226;42.162;24.756;2024-03-08T10:31:43;100050.59;;;7.67;100.00
6387;BME280;3226;42.162;24.756;2024-03-08T10:34:12;100050.63;;;7.80;100.00
6387;BME280;3226;42.162;24.756;2024-03-08T10:36:40;100044.06;;;7.60;100.00
6387;BME280;3226;42.162;24.756;2024-03-08T10:39:17;100041.88;;;7.53;100.00
6387;BME280;3226;42.162;24.756;2024-03-08T10:41:52;100040.81;;;7.29;100.00
6387;BME280;3226;42.162;24.756;2024-03-08T10:44:36;100040.75;;;7.16;100.00
6387;BME280;3226;42.162;24.756;2024-03-08T10:47:14;100037.25;;;7.44;100.00
6387;BME280;3226;42.162;24.756;2024-03-08T10:49:51;100041.72;;;7.42;100.00
6387;BME280;3226;42.162;24.756;2024-03-08T10:52:20;100036.63;;;7.26;100.00
6387;BME280;3226;42.162;24.756;2024-03-08T10:54:51;100025.94;;;7.16;100.00
6387;BME280;3226;42.162;24.756;2024-03-08T10:57:22;100034.63;;;7.44;100.00
6387;BME280;3226;42.162;24.756;2024-03-08T10:59:51;100031.81;;;7.62;100.00
6387;BME280;3226;42.162;24.756;2024-03-08T11:02:25;100029.66;;;7.81;100.00
6387;BME280;3226;42.162;24.756;2024-03-08T11:04:55;100024.38;;;7.83;100.00
6387;BME280;3226;42.162;24.756;2024-03-08T11:07:25;100020.00;;;7.96;100.00
6387;BME280;3226;42.162;24.756;2024-03-08T11:09:55;100009.41;;;8.25;100.00
6387;BME280;3226;42.162;24.756;2024-03-08T11:12:25;100015.91;;;8.46;100.00
6387;BME280;3226;42.162;24.756;2024-03-08T11:14:59;100004.25;;;8.51;100.00
6387;BME280;3226;42.162;24.756;2024-03-08T11:17:45;99991.75;;;8.29;100.00
6387;BME280;3226;42.162;24.756;2024-03-08T11:20:15;99999.13;;;8.63;100.00
6387;BME280;3226;42.162;24.756;2024-03-08T11:22:48;100004.97;;;8.66;100.00
6387;BME280;3226;42.162;24.756;2024-03-08T11:25:32;99981.22;;;8.18;100.00
6387;BME280;3226;42.162;24.756;2024-03-08T11:28:11;100010.41;;;8.50;100.00
6387;BME280;3226;42.162;24.756;2024-03-08T11:30:45;100012.38;;;8.73;100.00
6387;BME280;3226;42.162;24.756;2024-03-08T11:33:15;100018.59;;;8.96;100.00
6387;BME280;3226;42.162;24.756;2024-03-08T11:35:44;100022.97;;;8.95;100.00
6387;BME280;3226;42.162;24.756;2024-03-08T11:38:12;100021.31;;;8.81;100.00
6387;BME280;3226;42.162;24.756;2024-03-08T11:40:45;100018.59;;;9.09;100.00
6387;BME280;3226;42.162;24.756;2024-03-08T11:43:16;99979.19;;;9.36;94.99
6387;BME280;3226;42.162;24.756;2024-03-08T11:45:44;100009.78;;;9.72;95.75
6387;BME280;3226;42.162;24.756;2024-03-08T11:48:12;100009.66;;;9.73;92.80
6387;BME280;3226;42.162;24.756;2024-03-08T11:50:41;100014.88;;;9.24;94.22
6387;BME280;3226;42.162;24.756;2024-03-08T11:53:11;100009.34;;;8.79;99.19
6387;BME280;3226;42.162;24.756;2024-03-08T11:55:40;100001.72;;;8.76;97.91
6387;BME280;3226;42.162;24.756;2024-03-08T11:58:12;99989.59;;;8.49;99.29
6387;BME280;3226;42.162;24.756;2024-03-08T12:00:40;100005.56;;;8.31;99.65
6387;BME280;3226;42.162;24.756;2024-03-08T12:03:08;99998.44;;;8.07;100.00
6387;BME280;3226;42.162;24.756;2024-03-08T12:05:37;99999.63;;;7.48;100.00
6387;BME280;3226;42.162;24.756;2024-03-08T12:08:05;99996.13;;;7.62;100.00
6387;BME280;3226;42.162;24.756;2024-03-08T12:10:37;99993.03;;;7.70;100.00
6387;BME280;3226;42.162;24.756;2024-03-08T12:13:06;99972.44;;;7.52;100.00
6387;BME280;3226;42.162;24.756;2024-03-08T12:15:39;100003.22;;;7.60;100.00
6387;BME280;3226;42.162;24.756;2024-03-08T12:18:08;100003.25;;;7.73;100.00
6387;BME280;3226;42.162;24.756;2024-03-08T12:20:37;99997.97;;;7.47;100.00
6387;BME280;3226;42.162;24.756;2024-03-08T12:23:05;99997.13;;;7.74;100.00
6387;BME280;3226;42.162;24.756;2024-03-08T12:25:33;99998.78;;;7.75;100.00
6387;BME280;3226;42.162;24.756;2024-03-08T12:28:11;99990.25;;;7.86;100.00
6387;BME280;3226;42.162;24.756;2024-03-08T12:30:46;99983.19;;;7.88;100.00
6387;BME280;3226;42.162;24.756;2024-03-08T12:33:15;99974.50;;;7.88;100.00
6387;BME280;3226;42.162;24.756;2024-03-08T12:35:50;99967.03;;;7.96;100.00
6387;BME280;3226;42.162;24.756;2024-03-08T12:38:22;99979.03;;;8.12;100.00
6387;BME280;3226;42.162;24.756;2024-03-08T12:40:55;99967.63;;;7.87;100.00
6387;BME280;3226;42.162;24.756;2024-03-08T12:43:25;99939.44;;;7.92;100.00
6387;BME280;3226;42.162;24.756;2024-03-08T12:45:57;99945.91;;;7.73;100.00
6387;BME280;3226;42.162;24.756;2024-03-08T12:48:25;99980.38;;;8.04;100.00
6387;BME280;3226;42.162;24.756;2024-03-08T12:50:53;99982.16;;;8.17;100.00
6387;BME280;3226;42.162;24.756;2024-03-08T12:53:21;99964.75;;;8.56;100.00
6387;BME280;3226;42.162;24.756;2024-03-08T12:55:52;99956.91;;;8.56;97.36
6387;BME280;3226;42.162;24.756;2024-03-08T12:58:24;99969.16;;;8.56;98.36
6387;BME280;3226;42.162;24.756;2024-03-08T13:00:52;99972.28;;;8.61;98.47
6387;BME280;3226;42.162;24.756;2024-03-08T13:03:20;99979.47;;;8.70;95.62
6387;BME280;3226;42.162;24.756;2024-03-08T13:05:49;99988.72;;;8.87;94.33
6387;BME280;3226;42.162;24.756;2024-03-08T13:08:17;99983.44;;;8.76;94.53
6387;BME280;3226;42.162;24.756;2024-03-08T13:10:45;99978.09;;;8.64;93.83
6387;BME280;3226;42.162;24.756;2024-03-08T13:13:15;99971.34;;;8.62;92.52
6387;BME280;3226;42.162;24.756;2024-03-08T13:15:45;99966.19;;;8.47;94.93
6387;BME280;3226;42.162;24.756;2024-03-08T13:18:13;99968.59;;;8.63;98.80